Time;durP1;ratioP1;P1;durP2;ratioP2;P2;SDS_P1;SDS_P2;PMS_P1;PMS_P2;Temp;Humidity;BMP_temperature;BMP_pressure;BME280_temperature;BME280_humidity;BME280_pressure;Samples;Min_cycle;Max_cycle;Signal;HPM_P1;HPM_P2
2022/10/22 00:00:10;;;;;;;15.85;14.25;;;10.90;99.90;;;;;;6260642;23;20549;-87
2022/10/22 00:02:37;;;;;;;18.05;15.73;;;11.00;99.90;;;;;;6261960;23;20183;-87
2022/10/22 00:05:05;;;;;;;19.25;14.20;;;11.00;99.90;;;;;;6234981;23;20217;-86
2022/10/22 00:07:32;;;;;;;20.30;15.88;;;10.90;99.90;;;;;;6236122;23;20187;-88
2022/10/22 00:09:59;;;;;;;21.23;15.50;;;10.70;99.90;;;;;;6264308;23;20179;-86
2022/10/22 00:12:27;;;;;;;16.88;14.30;;;10.60;99.90;;;;;;6263977;23;20211;-87
2022/10/22 00:14:55;;;;;;;21.05;14.60;;;10.50;99.90;;;;;;6262754;23;20215;-89
2022/10/22 00:17:22;;;;;;;16.75;14.73;;;10.40;99.90;;;;;;6264606;23;20203;-85
2022/10/22 00:19:57;;;;;;;18.05;14.90;;;10.70;99.90;;;;;;6268574;23;20179;-86
2022/10/22 00:22:25;;;;;;;20.40;15.52;;;10.70;99.90;;;;;;6260224;23;20198;-88
2022/10/22 00:35:33;;;;;;;15.68;13.52;;;11.60;99.90;;;;;;6240459;22;20234;-88
2022/10/22 00:38:03;;;;;;;14.57;13.18;;;11.40;99.90;;;;;;6260009;22;20194;-88
2022/10/22 00:40:32;;;;;;;15.38;12.30;;;11.30;99.90;;;;;;6265827;22;20171;-88
2022/10/22 00:43:01;;;;;;;14.13;11.50;;;11.30;99.90;;;;;;6265823;22;20206;-86
2022/10/22 00:45:32;;;;;;;12.23;10.88;;;11.30;99.90;;;;;;6244349;22;20186;-86
2022/10/22 00:48:15;;;;;;;17.23;12.50;;;11.30;99.90;;;;;;6271023;22;20164;-86
2022/10/22 00:50:48;;;;;;;16.58;12.60;;;11.40;99.90;;;;;;6247318;22;20243;-88
2022/10/22 00:53:19;;;;;;;15.07;12.20;;;11.50;99.90;;;;;;6274739;22;20190;-89
2022/10/22 00:55:53;;;;;;;15.43;12.35;;;11.40;99.90;;;;;;6249035;22;20183;-87
2022/10/22 00:58:26;;;;;;;15.77;12.65;;;11.20;99.90;;;;;;6273299;22;20164;-86
2022/10/22 01:00:54;;;;;;;18.23;12.85;;;11.40;99.90;;;;;;6268936;22;20155;-86
2022/10/22 01:03:22;;;;;;;15.88;13.02;;;11.50;99.90;;;;;;6257257;23;20176;-87
2022/10/22 01:05:55;;;;;;;16.27;11.68;;;11.50;99.90;;;;;;6255928;23;20195;-86
2022/10/22 01:08:57;;;;;;;16.42;13.52;;;11.50;99.90;;;;;;6255212;23;20539;-85
2022/10/22 01:11:42;;;;;;;18.00;14.07;;;11.50;99.90;;;;;;6228028;23;20183;-87
2022/10/22 01:14:44;;;;;;;14.57;11.70;;;11.50;99.90;;;;;;6257445;23;20206;-88
2022/10/22 01:17:32;;;;;;;16.15;11.48;;;11.30;99.90;;;;;;6251720;23;20202;-89
2022/10/22 01:20:10;;;;;;;15.57;11.43;;;11.40;99.90;;;;;;6254816;23;20230;-87
2022/10/22 01:23:00;;;;;;;15.48;12.70;;;11.30;99.90;;;;;;6256050;23;20389;-87
2022/10/22 01:25:36;;;;;;;17.08;13.35;;;11.40;99.90;;;;;;6257213;23;20168;-88
2022/10/22 01:28:12;;;;;;;13.00;11.70;;;11.30;99.90;;;;;;6257981;23;20175;-89
2022/10/22 01:30:42;;;;;;;13.07;11.02;;;11.50;99.90;;;;;;6230441;23;20168;-87
2022/10/22 01:33:12;;;;;;;17.67;12.85;;;11.50;99.90;;;;;;6228783;23;20523;-87
2022/10/22 01:35:43;;;;;;;19.17;11.13;;;11.40;99.90;;;;;;6255299;23;20195;-87
2022/10/22 01:38:18;;;;;;;13.40;10.82;;;11.30;99.90;;;;;;6254840;23;20159;-89
2022/10/22 01:40:46;;;;;;;13.13;11.25;;;11.20;99.90;;;;;;6253011;23;20175;-88
2022/10/22 01:43:21;;;;;;;13.20;11.45;;;11.30;99.90;;;;;;6246946;22;20148;-86
2022/10/22 01:45:57;;;;;;;14.88;12.50;;;11.30;99.90;;;;;;6270610;22;20175;-86
2022/10/22 01:49:11;;;;;;;19.08;11.73;;;11.30;99.90;;;;;;6229079;23;20183;-87
2022/10/22 01:52:12;;;;;;;14.90;12.75;;;11.30;99.90;;;;;;6228926;23;20167;-86
2022/10/22 01:55:00;;;;;;;12.25;11.05;;;11.40;99.90;;;;;;6253765;23;20391;-85
2022/10/22 01:57:39;;;;;;;12.43;11.07;;;11.60;99.90;;;;;;6252672;23;20192;-84
2022/10/22 02:00:13;;;;;;;14.90;12.25;;;11.60;99.90;;;;;;6251602;23;20238;-85
2022/10/22 02:03:01;;;;;;;13.68;11.50;;;11.60;99.90;;;;;;6258892;23;20164;-87
2022/10/22 02:05:35;;;;;;;14.93;11.90;;;11.50;99.90;;;;;;6235495;23;20243;-89
2022/10/22 02:08:14;;;;;;;14.30;10.90;;;11.30;99.90;;;;;;6260787;23;20194;-90
2022/10/22 02:10:46;;;;;;;14.82;11.93;;;11.20;99.90;;;;;;6262251;23;20190;-90
2022/10/22 02:13:45;;;;;;;13.93;11.73;;;11.10;99.90;;;;;;6232047;23;20183;-86
2022/10/22 02:16:20;;;;;;;14.60;11.40;;;11.10;99.90;;;;;;6225461;23;20258;-87
2022/10/22 02:18:52;;;;;;;14.88;11.35;;;11.10;99.90;;;;;;6266398;23;20171;-85
2022/10/22 02:21:20;;;;;;;14.05;12.75;;;10.90;99.90;;;;;;6268370;23;20207;-86
2022/10/22 02:23:50;;;;;;;16.17;12.75;;;10.70;99.90;;;;;;6264447;23;20175;-89
2022/10/22 02:26:22;;;;;;;16.35;11.75;;;10.60;99.90;;;;;;6254938;23;20191;-85
2022/10/22 02:29:09;;;;;;;16.13;12.50;;;10.50;99.90;;;;;;6227865;23;20160;-88
2022/10/22 02:31:40;;;;;;;12.77;11.35;;;10.40;99.90;;;;;;6255688;22;20441;-86
2022/10/22 02:34:13;;;;;;;14.00;12.48;;;10.30;99.90;;;;;;6270844;22;20163;-85
2022/10/22 02:36:46;;;;;;;15.00;11.40;;;10.30;99.90;;;;;;6269384;22;20199;-85
2022/10/22 02:39:19;;;;;;;17.98;12.70;;;10.10;99.90;;;;;;6259087;23;20202;-86
2022/10/22 02:41:48;;;;;;;16.90;13.13;;;10.00;99.90;;;;;;6268853;23;20188;-87
2022/10/22 02:44:20;;;;;;;16.77;12.85;;;10.20;99.90;;;;;;6235743;23;20229;-87
2022/10/22 02:46:55;;;;;;;16.23;12.65;;;10.00;99.90;;;;;;6254174;23;20182;-88
2022/10/22 02:49:24;;;;;;;13.73;12.20;;;10.10;99.90;;;;;;6253999;23;20183;-83
2022/10/22 02:51:51;;;;;;;14.82;13.30;;;10.00;99.90;;;;;;6253708;23;20183;-89
2022/10/22 02:54:20;;;;;;;13.45;12.05;;;9.90;99.90;;;;;;6251988;23;20180;-86
2022/10/22 02:56:49;;;;;;;13.55;11.55;;;9.80;99.90;;;;;;6252983;23;20187;-84
2022/10/22 02:59:21;;;;;;;16.70;12.75;;;10.00;99.90;;;;;;6253003;23;20203;-88
2022/10/22 03:01:54;;;;;;;15.88;12.88;;;10.10;99.90;;;;;;6227732;23;20226;-88
2022/10/22 03:04:26;;;;;;;15.75;13.48;;;10.20;99.90;;;;;;6254038;23;20154;-88
2022/10/22 03:06:54;;;;;;;14.93;11.82;;;10.20;99.90;;;;;;6254067;23;20168;-88
2022/10/22 03:09:24;;;;;;;14.32;12.25;;;10.50;99.90;;;;;;6253656;23;20230;-88
2022/10/22 03:11:56;;;;;;;12.38;11.07;;;10.60;99.90;;;;;;6254092;23;20168;-89
2022/10/22 03:14:28;;;;;;;14.23;11.48;;;10.80;99.90;;;;;;6254378;23;20187;-90
2022/10/22 03:16:56;;;;;;;16.67;13.65;;;10.60;99.90;;;;;;6260343;23;20234;-87
2022/10/22 03:30:06;;;;;;;16.83;11.48;;;10.20;99.90;;;;;;6254586;22;20195;-86
2022/10/22 03:32:33;;;;;;;13.68;11.63;;;10.20;99.90;;;;;;6254175;23;20187;-87
2022/10/22 03:35:01;;;;;;;16.33;11.25;;;10.20;99.90;;;;;;6265029;23;20183;-85
2022/10/22 03:37:29;;;;;;;13.27;11.02;;;10.30;99.90;;;;;;6267818;22;20187;-87
2022/10/22 03:39:58;;;;;;;16.50;12.05;;;10.30;99.90;;;;;;6242443;22;20171;-85
2022/10/22 03:42:27;;;;;;;14.07;10.73;;;10.40;99.90;;;;;;6260441;23;20184;-86
2022/10/22 03:44:54;;;;;;;12.85;11.55;;;10.40;99.90;;;;;;6270980;22;20218;-88
2022/10/22 03:47:25;;;;;;;15.40;12.23;;;10.50;99.90;;;;;;6233736;23;20206;-87
2022/10/22 03:49:53;;;;;;;16.30;11.35;;;10.60;99.90;;;;;;6232645;23;20476;-89
2022/10/22 03:52:21;;;;;;;12.18;10.88;;;10.80;99.90;;;;;;6256275;23;20226;-87
2022/10/22 03:54:47;;;;;;;15.55;12.27;;;10.80;99.90;;;;;;6256339;23;20191;-89
2022/10/22 03:57:15;;;;;;;15.77;12.23;;;11.00;99.90;;;;;;6254887;23;20231;-87
2022/10/22 04:00:21;;;;;;;15.50;11.32;;;10.90;99.90;;;;;;6228019;23;20632;-88
2022/10/22 04:02:48;;;;;;;16.42;12.18;;;10.60;99.90;;;;;;6255864;23;20179;-87
2022/10/22 04:05:16;;;;;;;17.70;13.00;;;10.60;99.90;;;;;;6230780;23;20180;-89
2022/10/22 04:07:43;;;;;;;15.82;11.65;;;10.40;99.90;;;;;;6260588;23;20260;-87
2022/10/22 04:10:11;;;;;;;18.77;14.40;;;10.30;99.90;;;;;;6267891;22;20167;-87
2022/10/22 04:12:39;;;;;;;13.40;11.57;;;10.60;99.90;;;;;;6269595;22;20198;-88
2022/10/22 04:15:09;;;;;;;14.65;12.40;;;10.90;99.90;;;;;;6230781;23;20176;-88
2022/10/22 04:17:37;;;;;;;17.65;13.13;;;10.90;99.90;;;;;;6259740;23;20565;-89
2022/10/22 04:20:10;;;;;;;20.38;12.73;;;10.80;99.90;;;;;;6256913;23;20172;-88
2022/10/22 04:22:37;;;;;;;17.42;13.23;;;11.10;99.90;;;;;;6257527;23;20179;-86
2022/10/22 04:25:05;;;;;;;19.25;13.60;;;11.10;99.90;;;;;;6255550;23;20183;-86
2022/10/22 04:27:33;;;;;;;15.90;11.52;;;11.00;99.90;;;;;;6229664;23;20183;-88
2022/10/22 04:30:05;;;;;;;20.70;11.80;;;10.90;99.90;;;;;;6229968;23;20218;-86
2022/10/22 04:32:32;;;;;;;15.85;13.38;;;10.90;99.90;;;;;;6256530;23;20164;-86
2022/10/22 04:35:00;;;;;;;13.68;11.05;;;11.00;99.90;;;;;;6255941;23;20183;-89
2022/10/22 04:37:28;;;;;;;14.50;12.00;;;11.20;99.90;;;;;;6258373;23;20211;-88
2022/10/22 04:39:55;;;;;;;15.90;11.80;;;11.30;99.90;;;;;;6258408;23;20219;-89
2022/10/22 04:42:24;;;;;;;19.73;13.85;;;11.10;99.90;;;;;;6256364;23;20171;-88
2022/10/22 04:44:51;;;;;;;19.77;13.23;;;11.10;99.90;;;;;;6254583;23;20363;-88
2022/10/22 04:47:18;;;;;;;17.17;12.85;;;11.30;99.90;;;;;;6256986;23;20187;-89
2022/10/22 04:49:45;;;;;;;17.27;12.55;;;11.40;99.90;;;;;;6229315;23;20235;-90
2022/10/22 04:52:13;;;;;;;20.15;12.80;;;11.30;99.90;;;;;;6260647;23;20179;-89
2022/10/22 04:54:43;;;;;;;17.08;13.00;;;11.20;99.90;;;;;;6257009;23;20175;-89
2022/10/22 04:57:13;;;;;;;16.02;10.88;;;11.30;99.90;;;;;;6255353;23;20266;-88
2022/10/22 04:59:40;;;;;;;15.65;12.90;;;11.40;99.90;;;;;;6229109;23;20193;-87
2022/10/22 05:02:10;;;;;;;12.98;11.35;;;11.40;99.90;;;;;;6256443;23;20184;-86
2022/10/22 05:04:43;;;;;;;17.65;13.82;;;11.30;99.90;;;;;;6253865;23;20187;-84
2022/10/22 05:07:10;;;;;;;13.30;11.90;;;10.90;99.90;;;;;;6229820;23;20163;-88
2022/10/22 05:09:39;;;;;;;18.35;14.45;;;10.90;99.90;;;;;;6228746;23;20183;-88
2022/10/22 05:12:07;;;;;;;24.83;14.45;;;11.10;99.90;;;;;;6254332;23;20218;-88
2022/10/22 05:14:37;;;;;;;17.30;12.50;;;11.10;99.90;;;;;;6230982;23;20188;-90
2022/10/22 05:17:10;;;;;;;19.10;14.65;;;11.00;99.90;;;;;;6235235;23;20198;-89
2022/10/22 05:19:42;;;;;;;16.17;12.80;;;11.20;99.90;;;;;;6260552;23;20178;-87
2022/10/22 05:22:10;;;;;;;24.98;13.77;;;11.30;99.90;;;;;;6259595;23;20218;-89
2022/10/22 05:24:37;;;;;;;19.65;14.00;;;11.40;99.90;;;;;;6255376;23;20222;-88
2022/10/22 05:27:04;;;;;;;14.77;12.32;;;11.40;99.90;;;;;;6257709;23;20237;-92
2022/10/22 05:29:31;;;;;;;19.73;14.15;;;11.40;99.90;;;;;;6259520;23;20252;-88
2022/10/22 05:32:04;;;;;;;18.02;15.57;;;11.40;99.90;;;;;;6252964;23;20241;-88
2022/10/22 05:34:32;;;;;;;19.27;13.98;;;11.30;99.90;;;;;;6228866;23;20183;-88
2022/10/22 05:36:59;;;;;;;21.63;13.43;;;11.30;99.90;;;;;;6255279;23;20262;-87
2022/10/22 05:39:27;;;;;;;17.52;13.50;;;11.50;99.90;;;;;;6255615;23;20463;-87
2022/10/22 05:41:54;;;;;;;18.80;12.80;;;11.70;99.90;;;;;;6258034;23;20187;-89
2022/10/22 05:44:22;;;;;;;14.57;13.05;;;11.70;99.90;;;;;;6267010;22;20211;-89
2022/10/22 05:52:05;;;;;;;13.93;12.27;;;12.10;99.90;;;;;;6241455;23;20203;-87
2022/10/22 05:54:33;;;;;;;17.30;12.30;;;12.30;99.90;;;;;;6236722;23;20203;-90
2022/10/22 05:57:01;;;;;;;20.83;12.80;;;12.50;99.90;;;;;;6261851;22;20295;-89
2022/10/22 05:59:28;;;;;;;19.98;12.50;;;12.50;99.90;;;;;;6240118;23;20190;-86
2022/10/22 06:02:01;;;;;;;15.52;11.07;;;12.70;99.90;;;;;;6241674;23;20172;-86
2022/10/22 06:04:30;;;;;;;19.30;11.93;;;12.70;99.90;;;;;;6239668;23;20156;-85
2022/10/22 06:07:01;;;;;;;16.23;11.75;;;12.90;99.90;;;;;;6242655;23;20172;-89
2022/10/22 06:09:33;;;;;;;13.75;10.57;;;12.80;99.90;;;;;;6242346;23;20169;-86
2022/10/22 06:12:11;;;;;;;17.20;12.68;;;12.90;99.90;;;;;;6233358;23;20653;-91
2022/10/22 06:14:41;;;;;;;16.98;11.85;;;13.10;99.90;;;;;;6228117;23;20192;-88
2022/10/22 06:17:10;;;;;;;18.40;10.93;;;13.30;99.90;;;;;;6227564;23;20230;-87
2022/10/22 06:19:38;;;;;;;12.85;10.75;;;13.40;99.90;;;;;;6229992;23;20185;-87
2022/10/22 06:22:04;;;;;;;13.25;10.95;;;13.40;99.90;;;;;;6225424;23;20184;-86
2022/10/22 06:24:32;;;;;;;11.60;9.73;;;13.50;99.90;;;;;;6223790;23;20184;-87
2022/10/22 06:27:00;;;;;;;18.45;9.90;;;13.60;99.90;;;;;;6226607;23;20184;-85
2022/10/22 06:29:33;;;;;;;10.30;9.23;;;13.70;99.90;;;;;;6233725;23;20243;-87
2022/10/22 06:32:02;;;;;;;13.68;11.02;;;13.70;99.90;;;;;;6230364;23;20202;-86
2022/10/22 06:34:29;;;;;;;14.02;11.90;;;13.80;99.90;;;;;;6228261;23;20184;-86
2022/10/22 06:36:57;;;;;;;15.57;10.02;;;13.80;99.90;;;;;;6228378;23;20192;-87
2022/10/22 06:39:24;;;;;;;11.32;9.98;;;13.70;99.90;;;;;;6200160;23;20180;-88
2022/10/22 06:41:51;;;;;;;14.65;11.45;;;13.70;99.90;;;;;;6225153;23;20185;-87
2022/10/22 06:44:27;;;;;;;13.88;10.68;;;13.80;99.90;;;;;;6223386;23;20218;-88
2022/10/22 06:46:56;;;;;;;15.77;10.82;;;13.90;99.90;;;;;;6223950;23;20160;-88
2022/10/22 06:49:24;;;;;;;17.30;11.15;;;13.90;99.90;;;;;;6221931;23;20458;-87
2022/10/22 06:51:52;;;;;;;15.57;10.18;;;14.00;99.90;;;;;;6225476;23;20196;-88
2022/10/22 06:54:21;;;;;;;14.80;12.13;;;14.10;99.90;;;;;;6225373;23;20180;-85
2022/10/22 06:56:47;;;;;;;14.75;11.27;;;14.10;99.90;;;;;;6223743;23;20176;-87
2022/10/22 06:59:19;;;;;;;17.00;10.80;;;14.10;99.90;;;;;;6227263;23;20152;-88
2022/10/22 07:01:48;;;;;;;18.77;11.02;;;14.20;99.90;;;;;;6223792;23;20184;-86
2022/10/22 07:04:16;;;;;;;16.63;12.80;;;14.30;99.90;;;;;;6224657;23;20176;-87
2022/10/22 07:06:42;;;;;;;16.50;12.02;;;14.30;99.90;;;;;;6226375;23;20187;-86
2022/10/22 07:09:09;;;;;;;19.20;13.65;;;14.40;99.90;;;;;;6227763;23;20214;-88
2022/10/22 07:11:44;;;;;;;15.07;11.85;;;14.50;99.90;;;;;;6227439;23;20190;-87
2022/10/22 07:14:13;;;;;;;21.02;13.38;;;14.50;99.90;;;;;;6226280;23;20168;-86
2022/10/22 07:16:44;;;;;;;20.60;14.35;;;14.50;99.90;;;;;;6226382;23;20216;-86
2022/10/22 07:19:14;;;;;;;16.23;13.10;;;14.70;99.90;;;;;;6226393;23;20169;-87
2022/10/22 07:21:42;;;;;;;24.80;14.43;;;14.70;99.90;;;;;;6234725;23;20180;-84
2022/10/22 07:24:10;;;;;;;20.17;14.40;;;14.70;99.90;;;;;;6237588;23;20188;-85
2022/10/22 07:26:40;;;;;;;20.80;13.85;;;14.80;99.90;;;;;;6237200;23;20172;-84
2022/10/22 07:29:10;;;;;;;22.25;13.90;;;15.00;99.90;;;;;;6236723;23;20172;-86
2022/10/22 07:31:38;;;;;;;27.23;18.75;;;15.10;99.90;;;;;;6230165;23;20207;-86
2022/10/22 07:34:05;;;;;;;20.80;15.07;;;15.20;99.90;;;;;;6227026;23;20186;-87
2022/10/22 07:36:35;;;;;;;22.23;16.02;;;15.30;99.90;;;;;;6227111;23;20211;-87
2022/10/22 07:39:03;;;;;;;20.80;14.57;;;15.40;99.90;;;;;;6229034;23;20227;-86
2022/10/22 07:41:33;;;;;;;20.52;15.77;;;15.40;99.90;;;;;;6228766;23;20179;-87
2022/10/22 07:44:01;;;;;;;25.38;16.25;;;15.40;99.90;;;;;;6204686;23;20207;-87
2022/10/22 07:46:29;;;;;;;27.77;17.23;;;15.40;99.90;;;;;;6228285;23;20184;-88
2022/10/22 07:48:56;;;;;;;28.33;18.30;;;15.40;99.90;;;;;;6231205;23;20184;-88
2022/10/22 07:51:23;;;;;;;23.23;17.45;;;15.20;99.90;;;;;;6228536;23;20192;-88
2022/10/22 07:53:54;;;;;;;24.10;16.10;;;15.30;99.90;;;;;;6227521;23;20239;-85
2022/10/22 07:56:22;;;;;;;22.55;15.90;;;15.40;99.90;;;;;;6228866;23;20396;-85
2022/10/22 07:58:50;;;;;;;21.83;17.23;;;15.40;99.90;;;;;;6227871;23;20224;-85
2022/10/22 08:01:17;;;;;;;16.92;13.75;;;15.30;99.90;;;;;;6230519;23;20176;-83
2022/10/22 08:03:53;;;;;;;21.80;13.60;;;15.00;99.90;;;;;;6233037;23;20168;-86
2022/10/22 08:06:22;;;;;;;15.43;13.80;;;14.80;99.90;;;;;;6231815;23;20479;-86
2022/10/22 08:08:51;;;;;;;16.52;14.73;;;14.70;99.90;;;;;;6234186;23;20199;-89
2022/10/22 08:13:56;;;;;;;15.88;12.52;;;14.50;99.90;;;;;;6239792;22;20575;-85
2022/10/22 08:38:05;;;;;;;12.23;9.80;;;15.40;99.90;;;;;;6167454;22;20307;-85
2022/10/22 09:12:50;;;;;;;24.23;14.77;;;17.10;99.90;;;;;;6266059;22;20424;-88
2022/10/22 09:15:23;;;;;;;23.00;14.17;;;17.00;99.90;;;;;;6270450;23;20358;-87
2022/10/22 09:26:25;;;;;;;18.33;14.37;;;16.80;99.90;;;;;;6320628;22;20437;-87
2022/10/22 09:37:31;;;;;;;16.47;12.63;;;16.30;99.90;;;;;;6203292;22;20478;-87
2022/10/22 09:48:11;;;;;;;24.00;13.83;;;16.00;99.90;;;;;;6182310;22;21036;-86
2022/10/22 10:01:27;;;;;;;21.87;13.03;;;15.90;99.90;;;;;;5480568;22;15414077;-86
2022/10/22 10:09:24;;;;;;;17.30;12.43;;;16.40;99.90;;;;;;6273320;22;20449;-87
2022/10/22 10:12:18;;;;;;;19.07;13.33;;;16.40;99.90;;;;;;6189024;22;20461;-88
2022/10/22 10:23:46;;;;;;;25.60;15.37;;;16.30;99.90;;;;;;6273652;22;20402;-87
2022/10/22 10:26:53;;;;;;;18.40;13.93;;;16.30;99.90;;;;;;6303834;22;20443;-87
2022/10/22 10:32:23;;;;;;;21.00;14.93;;;16.30;99.90;;;;;;6306023;22;20447;-86
2022/10/22 10:35:00;;;;;;;1.07;0.97;;;16.40;99.90;;;;;;6311905;22;20447;-89
2022/10/22 10:43:27;;;;;;;17.40;14.67;;;16.30;99.90;;;;;;6283110;22;20422;-86
2022/10/22 10:46:09;;;;;;;25.73;16.37;;;16.20;99.90;;;;;;6300555;22;20376;-86
2022/10/22 10:49:12;;;;;;;22.23;14.50;;;15.80;99.90;;;;;;6268371;22;20354;-85
2022/10/22 10:52:00;;;;;;;22.50;14.93;;;15.50;99.90;;;;;;6266553;22;20406;-87
2022/10/22 10:54:53;;;;;;;23.27;15.80;;;15.30;99.90;;;;;;6266878;22;20638;-89
2022/10/22 10:57:58;;;;;;;27.03;16.50;;;15.40;99.90;;;;;;6290940;22;20994;-86
2022/10/22 11:00:33;;;;;;;23.93;17.40;;;15.40;99.90;;;;;;6290218;22;20365;-87
2022/10/22 11:03:55;;;;;;;24.93;17.57;;;15.40;99.90;;;;;;6286195;22;20419;-86
2022/10/22 11:06:23;;;;;;;26.10;17.53;;;15.80;99.90;;;;;;6166736;23;20431;-86
2022/10/22 11:09:04;;;;;;;21.40;17.60;;;16.10;99.90;;;;;;6253202;22;20445;-88
2022/10/22 11:12:05;;;;;;;28.07;17.23;;;16.30;99.90;;;;;;6287216;22;20486;-87
2022/10/22 11:15:21;;;;;;;23.63;17.23;;;16.40;99.90;;;;;;6286502;22;20435;-87
2022/10/22 11:17:53;;;;;;;22.80;16.40;;;16.50;99.90;;;;;;6235798;22;20510;-87
2022/10/22 11:20:39;;;;;;;22.03;15.50;;;16.60;99.90;;;;;;6259550;22;20404;-86
2022/10/22 11:23:28;;;;;;;21.20;14.90;;;16.70;99.90;;;;;;6258687;22;20954;-87
2022/10/22 11:25:59;;;;;;;20.30;15.70;;;17.00;99.90;;;;;;6259459;22;21024;-85
2022/10/22 11:28:42;;;;;;;22.77;15.10;;;17.50;99.90;;;;;;6286742;22;20380;-85
2022/10/22 11:31:17;;;;;;;22.23;14.90;;;17.90;99.90;;;;;;6283478;22;20384;-86
2022/10/22 11:33:52;;;;;;;22.30;14.13;;;18.30;99.90;;;;;;6284187;22;20514;-85
2022/10/22 11:36:32;;;;;;;20.00;14.37;;;18.70;99.90;;;;;;6286390;22;20447;-86
2022/10/22 11:39:02;;;;;;;20.30;13.40;;;18.90;99.90;;;;;;6286694;22;20420;-86
2022/10/22 11:41:32;;;;;;;18.70;14.90;;;18.90;99.90;;;;;;6285853;22;20408;-86
2022/10/22 11:44:24;;;;;;;17.57;14.30;;;18.80;99.90;;;;;;6286051;22;20453;-87
2022/10/22 11:46:58;;;;;;;25.53;13.97;;;18.90;99.90;;;;;;6260598;22;20423;-87
2022/10/22 11:49:41;;;;;;;18.50;12.83;;;19.00;99.90;;;;;;6287032;22;20428;-87
2022/10/22 11:52:41;;;;;;;19.57;11.87;;;18.50;99.90;;;;;;6286044;22;20442;-88
2022/10/22 11:55:48;;;;;;;18.50;11.87;;;18.40;99.90;;;;;;6288005;22;20722;-87
2022/10/22 11:58:46;;;;;;;15.40;12.40;;;18.00;99.90;;;;;;6261994;22;20790;-87
2022/10/22 12:01:38;;;;;;;18.37;12.70;;;17.60;99.90;;;;;;6262025;22;20416;-85
2022/10/22 12:04:11;;;;;;;15.37;11.53;;;17.40;99.90;;;;;;6290413;22;20372;-87
2022/10/22 12:07:28;;;;;;;14.60;11.23;;;17.40;99.90;;;;;;6287808;22;20404;-85
2022/10/22 12:09:57;;;;;;;12.50;9.10;;;17.50;99.90;;;;;;6162090;23;20500;-87
2022/10/22 12:12:26;;;;;;;12.63;9.80;;;17.10;99.90;;;;;;6161598;23;20408;-87
2022/10/22 12:14:58;;;;;;;14.50;11.07;;;16.90;99.90;;;;;;6161519;23;20407;-86
2022/10/22 12:17:28;;;;;;;13.63;11.00;;;17.00;99.90;;;;;;6186027;22;20404;-85
2022/10/22 12:20:10;;;;;;;13.47;9.00;;;17.00;99.90;;;;;;6249747;22;20414;-83
2022/10/22 12:22:38;;;;;;;11.47;9.00;;;17.30;99.90;;;;;;6301224;22;20363;-87
2022/10/22 12:25:17;;;;;;;10.33;8.30;;;17.40;99.90;;;;;;6275349;22;20408;-86
2022/10/22 12:27:53;;;;;;;10.63;8.20;;;17.40;99.90;;;;;;6288120;22;20350;-87
2022/10/22 12:30:28;;;;;;;12.73;8.30;;;17.30;99.90;;;;;;6259165;22;20490;-88
2022/10/22 12:32:59;;;;;;;9.43;7.53;;;17.20;99.90;;;;;;6287162;22;20407;-87
2022/10/22 12:35:30;;;;;;;9.53;7.97;;;17.10;99.90;;;;;;6289054;22;20708;-87
2022/10/22 12:38:12;;;;;;;9.30;8.40;;;17.10;99.90;;;;;;6260829;22;20624;-87
2022/10/22 12:40:40;;;;;;;13.00;8.10;;;17.00;99.90;;;;;;6290778;22;20373;-85
2022/10/22 12:43:17;;;;;;;8.77;7.90;;;16.80;99.90;;;;;;6173460;23;20423;-86
2022/10/22 12:45:48;;;;;;;10.43;8.33;;;16.80;99.90;;;;;;6134649;23;20388;-86
2022/10/22 12:48:38;;;;;;;10.63;8.47;;;16.90;99.90;;;;;;6155982;23;20445;-88
2022/10/22 12:51:11;;;;;;;11.63;9.27;;;16.70;99.90;;;;;;6133341;23;20510;-86
2022/10/22 12:53:47;;;;;;;10.50;7.90;;;16.40;99.90;;;;;;6133911;23;20412;-83
2022/10/22 12:56:32;;;;;;;9.30;7.10;;;16.20;99.90;;;;;;6132017;23;20388;-86
2022/10/22 12:59:24;;;;;;;9.17;8.23;;;16.20;99.90;;;;;;6131707;23;20409;-85
2022/10/22 13:01:55;;;;;;;10.20;8.47;;;16.30;99.90;;;;;;6132531;23;20412;-84
2022/10/22 13:04:27;;;;;;;11.03;8.20;;;16.20;99.90;;;;;;6130717;23;20790;-84
2022/10/22 13:07:05;;;;;;;12.20;8.57;;;16.00;99.90;;;;;;6150644;23;20467;-82
2022/10/22 13:09:55;;;;;;;11.70;9.07;;;15.80;99.90;;;;;;6127413;23;20430;-82
2022/10/22 13:12:55;;;;;;;14.70;9.73;;;15.60;99.90;;;;;;6128485;23;20439;-85
2022/10/22 13:15:36;;;;;;;22.90;12.00;;;15.80;99.90;;;;;;6130523;23;20415;-84
2022/10/22 13:18:15;;;;;;;11.93;9.93;;;15.70;99.90;;;;;;6131780;23;20451;-85
2022/10/22 13:21:19;;;;;;;11.17;9.00;;;15.50;99.90;;;;;;6138264;23;20475;-85
2022/10/22 13:23:59;;;;;;;12.37;10.03;;;15.40;99.90;;;;;;6100740;23;20411;-85
2022/10/22 13:26:32;;;;;;;11.50;10.17;;;15.10;99.90;;;;;;6130056;23;20401;-85
2022/10/22 13:29:13;;;;;;;13.77;11.17;;;15.10;99.90;;;;;;6133992;23;20427;-86
2022/10/22 13:31:48;;;;;;;14.63;11.27;;;15.00;99.90;;;;;;6137938;23;20443;-86
2022/10/22 13:34:23;;;;;;;16.53;9.47;;;15.00;99.90;;;;;;6139055;23;20385;-85
2022/10/22 13:36:52;;;;;;;11.37;10.10;;;14.90;99.90;;;;;;6139053;23;20360;-87
2022/10/22 13:39:24;;;;;;;11.90;10.30;;;14.90;99.90;;;;;;6146405;23;20392;-86
2022/10/22 13:41:54;;;;;;;13.27;10.50;;;15.00;99.90;;;;;;6164687;22;20393;-86
2022/10/22 13:44:24;;;;;;;17.20;13.67;;;15.00;99.90;;;;;;6299529;22;20411;-85
2022/10/22 13:46:52;;;;;;;15.13;11.70;;;15.00;99.90;;;;;;6296035;22;20403;-86
2022/10/22 13:49:23;;;;;;;13.97;10.93;;;15.00;99.90;;;;;;6290844;22;20396;-87
2022/10/22 13:51:52;;;;;;;12.80;10.63;;;15.00;99.90;;;;;;6288028;22;20426;-85
2022/10/22 13:54:22;;;;;;;10.10;8.87;;;14.90;99.90;;;;;;6289121;22;20414;-87
2022/10/22 13:56:50;;;;;;;14.68;10.75;;;15.00;99.90;;;;;;6263600;22;20408;-87
2022/10/22 13:59:19;;;;;;;9.70;8.80;;;15.20;99.90;;;;;;6261034;22;20200;-85
2022/10/22 14:01:51;;;;;;;15.07;12.03;;;15.20;99.90;;;;;;6287878;22;20442;-85
2022/10/22 14:04:21;;;;;;;13.53;10.80;;;15.20;99.90;;;;;;6262106;22;20385;-87
2022/10/22 14:06:49;;;;;;;15.40;12.97;;;15.30;99.90;;;;;;6287809;22;20747;-87
2022/10/22 14:09:29;;;;;;;18.43;12.70;;;15.30;99.90;;;;;;6239779;22;20400;-84
2022/10/22 14:11:58;;;;;;;14.13;10.93;;;15.40;99.90;;;;;;6261411;22;20599;-87
2022/10/22 14:14:25;;;;;;;14.70;11.20;;;15.30;99.90;;;;;;6261713;22;20449;-87
2022/10/22 14:16:52;;;;;;;16.67;12.37;;;15.50;99.90;;;;;;6291175;22;20403;-87
2022/10/22 14:22:03;;;;;;;20.10;13.40;;;15.40;99.90;;;;;;6291093;22;20503;-86
2022/10/22 14:24:32;;;;;;;15.77;13.83;;;15.40;99.90;;;;;;6268051;22;20426;-84
2022/10/22 14:27:00;;;;;;;16.53;12.20;;;15.30;99.90;;;;;;6290716;22;20427;-85
2022/10/22 14:29:28;;;;;;;18.27;12.20;;;15.10;99.90;;;;;;6288207;22;20390;-87
2022/10/22 14:31:58;;;;;;;15.10;11.73;;;15.30;99.90;;;;;;6261208;22;20396;-87
2022/10/22 14:34:27;;;;;;;17.90;11.60;;;15.20;99.90;;;;;;6261517;22;20408;-86
2022/10/22 14:36:54;;;;;;;19.63;13.60;;;15.20;99.90;;;;;;6288865;22;20874;-86
2022/10/22 14:39:22;;;;;;;19.00;13.30;;;15.20;99.90;;;;;;6263806;22;20459;-85
2022/10/22 14:41:51;;;;;;;18.40;14.33;;;15.20;99.90;;;;;;6264068;22;20403;-86
2022/10/22 14:44:18;;;;;;;15.37;12.73;;;15.20;99.90;;;;;;6236182;22;20404;-88
2022/10/22 14:46:46;;;;;;;20.00;13.93;;;15.20;99.90;;;;;;6287894;22;20481;-89
2022/10/22 14:49:18;;;;;;;16.33;13.17;;;15.20;99.90;;;;;;6261577;22;20406;-87
2022/10/22 14:51:46;;;;;;;17.60;12.53;;;15.40;99.90;;;;;;6261965;22;20474;-87
2022/10/22 14:54:17;;;;;;;19.43;13.07;;;15.60;99.90;;;;;;6287848;22;20944;-88
2022/10/22 14:56:48;;;;;;;23.23;14.47;;;15.40;99.90;;;;;;6261986;22;20407;-86
2022/10/22 14:59:17;;;;;;;18.63;13.30;;;15.40;99.90;;;;;;6290527;22;20393;-86
2022/10/22 15:01:47;;;;;;;17.13;13.70;;;15.20;99.90;;;;;;6262073;22;20396;-88
2022/10/22 15:04:17;;;;;;;14.40;12.57;;;15.20;99.90;;;;;;6266276;22;20433;-89
2022/10/22 15:06:47;;;;;;;16.90;14.00;;;15.20;99.90;;;;;;6264822;22;20400;-86
2022/10/22 15:09:17;;;;;;;13.00;11.13;;;15.20;99.90;;;;;;6292632;22;20431;-88
2022/10/22 15:11:59;;;;;;;12.10;10.83;;;15.00;99.90;;;;;;6294783;22;20389;-86
2022/10/22 15:14:27;;;;;;;12.20;10.67;;;15.00;99.90;;;;;;6268450;22;20408;-86
2022/10/22 15:17:10;;;;;;;14.63;11.63;;;15.00;99.90;;;;;;6282369;22;20396;-88
2022/10/22 15:19:44;;;;;;;12.60;11.33;;;15.00;99.90;;;;;;6263897;22;20372;-86
2022/10/22 15:22:12;;;;;;;13.43;11.90;;;14.90;99.90;;;;;;6290536;22;20419;-86
2022/10/22 15:24:48;;;;;;;14.40;12.30;;;14.70;99.90;;;;;;6264383;22;20396;-85